sensor_id;sensor_type;location;lat;lon;timestamp;P1;durP1;ratioP1;P2;durP2;ratioP2
57842;SDS011;43673;51.058;3.734;2024-01-11T00:01:35;44.58;;;21.05;;
57842;SDS011;43673;51.058;3.734;2024-01-11T00:04:01;43.70;;;22.55;;
57842;SDS011;43673;51.058;3.734;2024-01-11T00:06:27;44.80;;;20.65;;
57842;SDS011;43673;51.058;3.734;2024-01-11T00:08:53;48.97;;;22.55;;
57842;SDS011;43673;51.058;3.734;2024-01-11T00:11:20;51.28;;;23.23;;
57842;SDS011;43673;51.058;3.734;2024-01-11T00:13:45;41.17;;;23.27;;
57842;SDS011;43673;51.058;3.734;2024-01-11T00:16:11;43.50;;;22.58;;
57842;SDS011;43673;51.058;3.734;2024-01-11T00:18:38;44.75;;;22.83;;
57842;SDS011;43673;51.058;3.734;2024-01-11T00:21:04;44.67;;;21.85;;
57842;SDS011;43673;51.058;3.734;2024-01-11T00:23:30;40.33;;;22.33;;
57842;SDS011;43673;51.058;3.734;2024-01-11T00:25:56;43.60;;;22.65;;
57842;SDS011;43673;51.058;3.734;2024-01-11T00:28:22;45.75;;;21.90;;
57842;SDS011;43673;51.058;3.734;2024-01-11T00:30:48;40.30;;;21.60;;
57842;SDS011;43673;51.058;3.734;2024-01-11T00:33:14;43.10;;;23.83;;
57842;SDS011;43673;51.058;3.734;2024-01-11T00:35:40;43.90;;;21.50;;
57842;SDS011;43673;51.058;3.734;2024-01-11T00:38:05;42.55;;;21.25;;
57842;SDS011;43673;51.058;3.734;2024-01-11T00:40:32;43.95;;;21.27;;
57842;SDS011;43673;51.058;3.734;2024-01-11T00:42:58;39.47;;;22.23;;
57842;SDS011;43673;51.058;3.734;2024-01-11T00:45:24;44.50;;;21.30;;
57842;SDS011;43673;51.058;3.734;2024-01-11T00:47:50;43.78;;;21.67;;
57842;SDS011;43673;51.058;3.734;2024-01-11T00:50:15;38.20;;;20.42;;
57842;SDS011;43673;51.058;3.734;2024-01-11T00:52:41;45.75;;;23.27;;
57842;SDS011;43673;51.058;3.734;2024-01-11T00:55:07;41.83;;;23.35;;
57842;SDS011;43673;51.058;3.734;2024-01-11T00:57:33;48.53;;;21.70;;
57842;SDS011;43673;51.058;3.734;2024-01-11T00:59:59;44.33;;;22.35;;
57842;SDS011;43673;51.058;3.734;2024-01-11T01:02:25;42.22;;;22.10;;
57842;SDS011;43673;51.058;3.734;2024-01-11T01:04:51;42.83;;;21.30;;
57842;SDS011;43673;51.058;3.734;2024-01-11T01:07:16;42.97;;;21.85;;
57842;SDS011;43673;51.058;3.734;2024-01-11T10:05:30;37.08;;;22.73;;
57842;SDS011;43673;51.058;3.734;2024-01-11T10:07:58;40.65;;;21.90;;
57842;SDS011;43673;51.058;3.734;2024-01-11T10:10:24;38.13;;;21.58;;
57842;SDS011;43673;51.058;3.734;2024-01-11T10:12:49;41.33;;;23.08;;
57842;SDS011;43673;51.058;3.734;2024-01-11T10:20:26;43.85;;;23.85;;
57842;SDS011;43673;51.058;3.734;2024-01-11T10:22:55;46.70;;;25.35;;
57842;SDS011;43673;51.058;3.734;2024-01-11T10:25:22;58.78;;;26.40;;
57842;SDS011;43673;51.058;3.734;2024-01-11T10:27:48;45.83;;;25.70;;
57842;SDS011;43673;51.058;3.734;2024-01-11T10:30:17;48.17;;;25.20;;
57842;SDS011;43673;51.058;3.734;2024-01-11T10:32:44;48.33;;;25.63;;
57842;SDS011;43673;51.058;3.734;2024-01-11T10:35:11;51.88;;;24.52;;
57842;SDS011;43673;51.058;3.734;2024-01-11T10:37:37;49.10;;;25.77;;
57842;SDS011;43673;51.058;3.734;2024-01-11T10:40:07;46.85;;;25.38;;
57842;SDS011;43673;51.058;3.734;2024-01-11T10:42:43;48.58;;;26.92;;
57842;SDS011;43673;51.058;3.734;2024-01-11T10:47:39;41.67;;;25.20;;
57842;SDS011;43673;51.058;3.734;2024-01-11T10:50:10;52.53;;;25.83;;
57842;SDS011;43673;51.058;3.734;2024-01-11T10:52:40;47.08;;;27.83;;
57842;SDS011;43673;51.058;3.734;2024-01-11T10:55:09;40.38;;;25.98;;
57842;SDS011;43673;51.058;3.734;2024-01-11T10:57:35;42.70;;;24.60;;
57842;SDS011;43673;51.058;3.734;2024-01-11T11:00:02;42.25;;;28.10;;
57842;SDS011;43673;51.058;3.734;2024-01-11T11:02:29;52.40;;;28.83;;
57842;SDS011;43673;51.058;3.734;2024-01-11T11:04:56;49.47;;;26.35;;
57842;SDS011;43673;51.058;3.734;2024-01-11T11:07:23;46.75;;;28.02;;
57842;SDS011;43673;51.058;3.734;2024-01-11T11:09:49;50.63;;;27.85;;
57842;SDS011;43673;51.058;3.734;2024-01-11T11:12:16;53.63;;;29.02;;
57842;SDS011;43673;51.058;3.734;2024-01-11T11:14:44;51.35;;;28.90;;
57842;SDS011;43673;51.058;3.734;2024-01-11T11:17:14;46.88;;;27.30;;
57842;SDS011;43673;51.058;3.734;2024-01-11T11:19:40;51.17;;;29.08;;
57842;SDS011;43673;51.058;3.734;2024-01-11T11:22:06;48.97;;;28.65;;
57842;SDS011;43673;51.058;3.734;2024-01-11T11:24:35;48.17;;;28.02;;
57842;SDS011;43673;51.058;3.734;2024-01-11T11:27:01;48.65;;;27.10;;
57842;SDS011;43673;51.058;3.734;2024-01-11T11:29:27;54.92;;;28.50;;
57842;SDS011;43673;51.058;3.734;2024-01-11T11:31:52;51.42;;;27.23;;
57842;SDS011;43673;51.058;3.734;2024-01-11T11:34:19;48.08;;;26.52;;
57842;SDS011;43673;51.058;3.734;2024-01-11T11:36:48;44.50;;;24.92;;
57842;SDS011;43673;51.058;3.734;2024-01-11T11:39:19;41.67;;;26.02;;
57842;SDS011;43673;51.058;3.734;2024-01-11T11:50:21;50.58;;;25.17;;
57842;SDS011;43673;51.058;3.734;2024-01-11T11:53:04;43.90;;;22.92;;
57842;SDS011;43673;51.058;3.734;2024-01-11T11:55:30;44.85;;;24.13;;
57842;SDS011;43673;51.058;3.734;2024-01-11T11:57:59;41.30;;;23.77;;
57842;SDS011;43673;51.058;3.734;2024-01-11T12:00:25;46.03;;;23.80;;
57842;SDS011;43673;51.058;3.734;2024-01-11T12:02:55;45.75;;;24.25;;
57842;SDS011;43673;51.058;3.734;2024-01-11T12:05:23;38.40;;;23.40;;
57842;SDS011;43673;51.058;3.734;2024-01-11T12:07:48;39.35;;;22.35;;
57842;SDS011;43673;51.058;3.734;2024-01-11T12:10:22;37.00;;;23.17;;
57842;SDS011;43673;51.058;3.734;2024-01-11T15:21:50;34.97;;;22.13;;
57842;SDS011;43673;51.058;3.734;2024-01-11T15:24:18;31.98;;;18.45;;
57842;SDS011;43673;51.058;3.734;2024-01-11T16:56:16;27.30;;;16.40;;
57842;SDS011;43673;51.058;3.734;2024-01-11T17:24:31;33.40;;;18.35;;
57842;SDS011;43673;51.058;3.734;2024-01-11T17:27:18;33.42;;;18.80;;
57842;SDS011;43673;51.058;3.734;2024-01-11T17:29:44;33.17;;;18.40;;
57842;SDS011;43673;51.058;3.734;2024-01-11T17:32:09;29.30;;;20.10;;
57842;SDS011;43673;51.058;3.734;2024-01-11T17:34:35;30.23;;;19.15;;
57842;SDS011;43673;51.058;3.734;2024-01-11T17:37:31;37.63;;;19.42;;
57842;SDS011;43673;51.058;3.734;2024-01-11T17:39:57;29.75;;;19.35;;
57842;SDS011;43673;51.058;3.734;2024-01-11T17:42:22;31.98;;;17.70;;
57842;SDS011;43673;51.058;3.734;2024-01-11T17:44:48;34.30;;;18.48;;
57842;SDS011;43673;51.058;3.734;2024-01-11T17:47:15;32.42;;;19.00;;
57842;SDS011;43673;51.058;3.734;2024-01-11T17:49:41;38.28;;;19.85;;
57842;SDS011;43673;51.058;3.734;2024-01-11T17:52:11;33.42;;;19.45;;
57842;SDS011;43673;51.058;3.734;2024-01-11T17:54:37;34.38;;;19.63;;
57842;SDS011;43673;51.058;3.734;2024-01-11T17:57:04;39.10;;;22.00;;
57842;SDS011;43673;51.058;3.734;2024-01-11T17:59:32;39.42;;;21.33;;
57842;SDS011;43673;51.058;3.734;2024-01-11T18:01:58;38.95;;;22.08;;
57842;SDS011;43673;51.058;3.734;2024-01-11T18:04:24;35.40;;;20.77;;
57842;SDS011;43673;51.058;3.734;2024-01-11T18:06:50;36.40;;;20.27;;
57842;SDS011;43673;51.058;3.734;2024-01-11T18:09:17;29.80;;;18.83;;
57842;SDS011;43673;51.058;3.734;2024-01-11T18:11:43;39.72;;;20.38;;
57842;SDS011;43673;51.058;3.734;2024-01-11T18:14:12;33.40;;;21.63;;
57842;SDS011;43673;51.058;3.734;2024-01-11T18:16:39;38.50;;;23.35;;
57842;SDS011;43673;51.058;3.734;2024-01-11T18:19:04;37.33;;;21.92;;
57842;SDS011;43673;51.058;3.734;2024-01-11T18:21:32;38.38;;;22.23;;
57842;SDS011;43673;51.058;3.734;2024-01-11T18:23:58;34.67;;;21.05;;
57842;SDS011;43673;51.058;3.734;2024-01-11T18:26:24;37.83;;;24.45;;
57842;SDS011;43673;51.058;3.734;2024-01-11T18:28:50;48.65;;;27.38;;
57842;SDS011;43673;51.058;3.734;2024-01-11T18:31:16;49.65;;;25.48;;
57842;SDS011;43673;51.058;3.734;2024-01-11T18:33:42;38.13;;;23.60;;
57842;SDS011;43673;51.058;3.734;2024-01-11T18:36:12;36.67;;;21.48;;
57842;SDS011;43673;51.058;3.734;2024-01-11T18:38:38;41.00;;;22.77;;
57842;SDS011;43673;51.058;3.734;2024-01-11T18:41:05;36.85;;;22.05;;
57842;SDS011;43673;51.058;3.734;2024-01-11T18:43:31;36.30;;;22.08;;
57842;SDS011;43673;51.058;3.734;2024-01-11T18:45:57;42.10;;;28.52;;
57842;SDS011;43673;51.058;3.734;2024-01-11T18:48:23;50.80;;;27.50;;
57842;SDS011;43673;51.058;3.734;2024-01-11T18:50:51;44.72;;;26.27;;
57842;SDS011;43673;51.058;3.734;2024-01-11T18:53:17;42.95;;;26.10;;
57842;SDS011;43673;51.058;3.734;2024-01-11T18:55:43;43.85;;;24.70;;
57842;SDS011;43673;51.058;3.734;2024-01-11T18:58:08;37.80;;;22.27;;
57842;SDS011;43673;51.058;3.734;2024-01-11T19:00:35;44.60;;;25.42;;
57842;SDS011;43673;51.058;3.734;2024-01-11T19:03:01;45.05;;;28.35;;
57842;SDS011;43673;51.058;3.734;2024-01-11T19:05:27;42.00;;;26.70;;
57842;SDS011;43673;51.058;3.734;2024-01-11T19:07:53;52.17;;;29.17;;
57842;SDS011;43673;51.058;3.734;2024-01-11T19:10:18;49.08;;;29.42;;
57842;SDS011;43673;51.058;3.734;2024-01-11T19:12:44;46.05;;;26.42;;
57842;SDS011;43673;51.058;3.734;2024-01-11T19:15:10;42.55;;;27.83;;
57842;SDS011;43673;51.058;3.734;2024-01-11T19:17:35;46.95;;;27.58;;
57842;SDS011;43673;51.058;3.734;2024-01-11T19:20:01;44.67;;;26.50;;
57842;SDS011;43673;51.058;3.734;2024-01-11T19:22:27;47.92;;;28.65;;
57842;SDS011;43673;51.058;3.734;2024-01-11T19:24:53;48.75;;;28.00;;
57842;SDS011;43673;51.058;3.734;2024-01-11T19:27:18;46.47;;;27.70;;
57842;SDS011;43673;51.058;3.734;2024-01-11T19:29:44;51.72;;;29.35;;
57842;SDS011;43673;51.058;3.734;2024-01-11T19:32:10;44.53;;;26.83;;
57842;SDS011;43673;51.058;3.734;2024-01-11T19:34:37;44.38;;;27.83;;
57842;SDS011;43673;51.058;3.734;2024-01-11T19:37:03;45.30;;;26.83;;
57842;SDS011;43673;51.058;3.734;2024-01-11T19:39:29;47.78;;;29.25;;
57842;SDS011;43673;51.058;3.734;2024-01-11T19:41:55;45.20;;;27.20;;
57842;SDS011;43673;51.058;3.734;2024-01-11T19:44:21;46.67;;;27.27;;
57842;SDS011;43673;51.058;3.734;2024-01-11T19:46:50;48.92;;;27.58;;
57842;SDS011;43673;51.058;3.734;2024-01-11T19:49:16;45.22;;;29.05;;
57842;SDS011;43673;51.058;3.734;2024-01-11T19:51:42;48.25;;;27.20;;
57842;SDS011;43673;51.058;3.734;2024-01-11T19:54:08;45.25;;;29.73;;
57842;SDS011;43673;51.058;3.734;2024-01-11T19:56:33;50.15;;;29.38;;
57842;SDS011;43673;51.058;3.734;2024-01-11T19:58:59;47.85;;;28.45;;
57842;SDS011;43673;51.058;3.734;2024-01-11T20:01:25;47.88;;;29.15;;
57842;SDS011;43673;51.058;3.734;2024-01-11T20:03:50;49.70;;;29.10;;
57842;SDS011;43673;51.058;3.734;2024-01-11T20:06:16;51.78;;;29.88;;
57842;SDS011;43673;51.058;3.734;2024-01-11T20:08:42;59.03;;;34.85;;
57842;SDS011;43673;51.058;3.734;2024-01-11T20:11:08;54.28;;;34.55;;
57842;SDS011;43673;51.058;3.734;2024-01-11T20:13:33;49.67;;;30.38;;
57842;SDS011;43673;51.058;3.734;2024-01-11T20:15:59;56.03;;;32.80;;
57842;SDS011;43673;51.058;3.734;2024-01-11T20:18:28;50.70;;;30.48;;
57842;SDS011;43673;51.058;3.734;2024-01-11T20:20:54;48.65;;;31.85;;
57842;SDS011;43673;51.058;3.734;2024-01-11T20:23:21;63.33;;;31.77;;
57842;SDS011;43673;51.058;3.734;2024-01-11T20:25:47;55.00;;;33.10;;
57842;SDS011;43673;51.058;3.734;2024-01-11T20:28:15;52.17;;;31.25;;
57842;SDS011;43673;51.058;3.734;2024-01-11T20:30:41;55.85;;;30.60;;
57842;SDS011;43673;51.058;3.734;2024-01-11T20:33:07;54.70;;;31.58;;
57842;SDS011;43673;51.058;3.734;2024-01-11T20:35:33;46.08;;;30.67;;
57842;SDS011;43673;51.058;3.734;2024-01-11T20:37:59;51.75;;;31.15;;
57842;SDS011;43673;51.058;3.734;2024-01-11T20:40:24;56.40;;;30.90;;
57842;SDS011;43673;51.058;3.734;2024-01-11T20:42:50;54.28;;;30.65;;
57842;SDS011;43673;51.058;3.734;2024-01-11T20:45:16;51.60;;;30.60;;
57842;SDS011;43673;51.058;3.734;2024-01-11T20:47:41;54.38;;;33.65;;
57842;SDS011;43673;51.058;3.734;2024-01-11T20:50:07;54.47;;;32.85;;
57842;SDS011;43673;51.058;3.734;2024-01-11T20:52:33;53.13;;;31.00;;
57842;SDS011;43673;51.058;3.734;2024-01-11T20:54:59;51.00;;;31.33;;
57842;SDS011;43673;51.058;3.734;2024-01-11T20:57:25;53.63;;;30.80;;
57842;SDS011;43673;51.058;3.734;2024-01-11T20:59:51;50.13;;;28.90;;
57842;SDS011;43673;51.058;3.734;2024-01-11T21:02:16;54.10;;;31.23;;
57842;SDS011;43673;51.058;3.734;2024-01-11T21:04:42;43.58;;;27.23;;
57842;SDS011;43673;51.058;3.734;2024-01-11T21:07:08;50.00;;;28.13;;
57842;SDS011;43673;51.058;3.734;2024-01-11T21:09:34;46.63;;;27.70;;
57842;SDS011;43673;51.058;3.734;2024-01-11T21:11:59;52.42;;;29.77;;
57842;SDS011;43673;51.058;3.734;2024-01-11T21:14:25;47.20;;;28.30;;
57842;SDS011;43673;51.058;3.734;2024-01-11T21:16:51;50.38;;;32.83;;
57842;SDS011;43673;51.058;3.734;2024-01-11T21:19:20;47.58;;;31.83;;
57842;SDS011;43673;51.058;3.734;2024-01-11T21:21:46;60.53;;;34.80;;
57842;SDS011;43673;51.058;3.734;2024-01-11T21:24:13;60.85;;;32.60;;
57842;SDS011;43673;51.058;3.734;2024-01-11T21:26:41;56.97;;;34.50;;
57842;SDS011;43673;51.058;3.734;2024-01-11T21:29:07;53.03;;;33.80;;
57842;SDS011;43673;51.058;3.734;2024-01-11T21:31:34;49.97;;;30.55;;
57842;SDS011;43673;51.058;3.734;2024-01-11T21:34:00;51.97;;;31.25;;
57842;SDS011;43673;51.058;3.734;2024-01-11T21:36:28;57.33;;;33.25;;
57842;SDS011;43673;51.058;3.734;2024-01-11T21:38:54;58.55;;;34.00;;
57842;SDS011;43673;51.058;3.734;2024-01-11T21:41:22;55.72;;;32.22;;
57842;SDS011;43673;51.058;3.734;2024-01-11T21:43:50;49.50;;;29.40;;
57842;SDS011;43673;51.058;3.734;2024-01-11T21:46:16;55.17;;;31.55;;
57842;SDS011;43673;51.058;3.734;2024-01-11T21:48:43;53.78;;;32.45;;
57842;SDS011;43673;51.058;3.734;2024-01-11T21:51:09;64.13;;;36.22;;
57842;SDS011;43673;51.058;3.734;2024-01-11T21:53:36;62.78;;;34.72;;
57842;SDS011;43673;51.058;3.734;2024-01-11T21:56:02;59.00;;;34.45;;
57842;SDS011;43673;51.058;3.734;2024-01-11T21:58:28;64.75;;;37.05;;
57842;SDS011;43673;51.058;3.734;2024-01-11T22:00:54;58.45;;;32.70;;
57842;SDS011;43673;51.058;3.734;2024-01-11T22:03:24;55.10;;;34.55;;
57842;SDS011;43673;51.058;3.734;2024-01-11T22:05:52;57.28;;;36.28;;
57842;SDS011;43673;51.058;3.734;2024-01-11T22:08:18;64.50;;;35.60;;
57842;SDS011;43673;51.058;3.734;2024-01-11T22:10:48;57.67;;;33.92;;
57842;SDS011;43673;51.058;3.734;2024-01-11T22:13:17;57.05;;;33.75;;
57842;SDS011;43673;51.058;3.734;2024-01-11T22:15:43;54.35;;;34.92;;
57842;SDS011;43673;51.058;3.734;2024-01-11T22:18:09;54.92;;;32.80;;
57842;SDS011;43673;51.058;3.734;2024-01-11T22:20:34;55.83;;;32.28;;
57842;SDS011;43673;51.058;3.734;2024-01-11T22:23:00;59.90;;;36.25;;
57842;SDS011;43673;51.058;3.734;2024-01-11T22:25:26;58.38;;;37.38;;
57842;SDS011;43673;51.058;3.734;2024-01-11T22:27:52;57.95;;;35.92;;
57842;SDS011;43673;51.058;3.734;2024-01-11T22:30:18;59.42;;;34.47;;
57842;SDS011;43673;51.058;3.734;2024-01-11T22:32:44;61.50;;;35.83;;
57842;SDS011;43673;51.058;3.734;2024-01-11T22:35:11;53.03;;;32.00;;
57842;SDS011;43673;51.058;3.734;2024-01-11T22:37:37;55.65;;;32.70;;
57842;SDS011;43673;51.058;3.734;2024-01-11T22:40:03;56.25;;;32.35;;
57842;SDS011;43673;51.058;3.734;2024-01-11T22:42:32;55.38;;;31.45;;
57842;SDS011;43673;51.058;3.734;2024-01-11T22:44:59;59.78;;;33.78;;
57842;SDS011;43673;51.058;3.734;2024-01-11T22:47:25;57.40;;;32.40;;
57842;SDS011;43673;51.058;3.734;2024-01-11T22:49:51;60.75;;;33.58;;
57842;SDS011;43673;51.058;3.734;2024-01-11T22:52:17;58.58;;;31.08;;
57842;SDS011;43673;51.058;3.734;2024-01-11T22:54:43;54.45;;;34.15;;
57842;SDS011;43673;51.058;3.734;2024-01-11T22:57:09;59.88;;;34.08;;
57842;SDS011;43673;51.058;3.734;2024-01-11T22:59:36;54.28;;;32.05;;
57842;SDS011;43673;51.058;3.734;2024-01-11T23:02:02;60.30;;;33.50;;
57842;SDS011;43673;51.058;3.734;2024-01-11T23:04:29;56.15;;;34.10;;
57842;SDS011;43673;51.058;3.734;2024-01-11T23:06:55;62.78;;;36.38;;
57842;SDS011;43673;51.058;3.734;2024-01-11T23:09:25;61.08;;;34.50;;
57842;SDS011;43673;51.058;3.734;2024-01-11T23:11:52;56.28;;;34.38;;
57842;SDS011;43673;51.058;3.734;2024-01-11T23:14:18;56.38;;;31.30;;
57842;SDS011;43673;51.058;3.734;2024-01-11T23:16:44;52.33;;;32.65;;
57842;SDS011;43673;51.058;3.734;2024-01-11T23:19:10;49.70;;;31.92;;
57842;SDS011;43673;51.058;3.734;2024-01-11T23:21:36;59.53;;;37.95;;
57842;SDS011;43673;51.058;3.734;2024-01-11T23:24:02;62.75;;;38.50;;
57842;SDS011;43673;51.058;3.734;2024-01-11T23:26:27;63.40;;;36.13;;
57842;SDS011;43673;51.058;3.734;2024-01-11T23:28:53;60.03;;;33.58;;
57842;SDS011;43673;51.058;3.734;2024-01-11T23:31:19;52.83;;;32.15;;
57842;SDS011;43673;51.058;3.734;2024-01-11T23:33:44;55.35;;;33.08;;
57842;SDS011;43673;51.058;3.734;2024-01-11T23:36:13;51.38;;;30.08;;
57842;SDS011;43673;51.058;3.734;2024-01-11T23:38:39;59.67;;;36.00;;
57842;SDS011;43673;51.058;3.734;2024-01-11T23:41:06;56.30;;;31.35;;
57842;SDS011;43673;51.058;3.734;2024-01-11T23:43:33;58.90;;;32.45;;
57842;SDS011;43673;51.058;3.734;2024-01-11T23:45:58;53.40;;;32.08;;
57842;SDS011;43673;51.058;3.734;2024-01-11T23:48:24;58.25;;;32.53;;
57842;SDS011;43673;51.058;3.734;2024-01-11T23:50:50;51.78;;;31.48;;
57842;SDS011;43673;51.058;3.734;2024-01-11T23:53:16;53.05;;;32.30;;
57842;SDS011;43673;51.058;3.734;2024-01-11T23:55:43;56.65;;;33.10;;
57842;SDS011;43673;51.058;3.734;2024-01-11T23:58:09;54.47;;;31.70;;
